sensor_id;sensor_type;location;lat;lon;timestamp;temperature;humidity
22271;DHT22;11304;53.520;10.104;2023-05-20T07:36:58;15.90;99.90
22271;DHT22;11304;53.520;10.104;2023-05-20T07:39:23;15.80;99.90
22271;DHT22;11304;53.520;10.104;2023-05-20T07:41:49;15.80;99.90
22271;DHT22;11304;53.520;10.104;2023-05-20T07:44:15;15.90;99.90
22271;DHT22;11304;53.520;10.104;2023-05-20T07:46:43;16.10;99.90
22271;DHT22;11304;53.520;10.104;2023-05-20T07:49:10;16.50;99.90
22271;DHT22;11304;53.520;10.104;2023-05-20T07:51:37;16.50;99.90
22271;DHT22;11304;53.520;10.104;2023-05-20T07:56:29;16.80;99.90
22271;DHT22;11304;53.520;10.104;2023-05-20T07:58:56;17.20;99.90
22271;DHT22;11304;53.520;10.104;2023-05-20T08:01:26;17.40;99.90
22271;DHT22;11304;53.520;10.104;2023-05-20T08:03:52;17.40;99.90
22271;DHT22;11304;53.520;10.104;2023-05-20T08:06:18;17.50;99.90
22271;DHT22;11304;53.520;10.104;2023-05-20T08:08:50;17.50;99.90
22271;DHT22;11304;53.520;10.104;2023-05-20T08:11:19;17.70;99.90
22271;DHT22;11304;53.520;10.104;2023-05-20T08:13:46;17.80;99.90
22271;DHT22;11304;53.520;10.104;2023-05-20T08:16:12;17.80;99.90
22271;DHT22;11304;53.520;10.104;2023-05-20T08:18:37;17.70;99.90
22271;DHT22;11304;53.520;10.104;2023-05-20T08:21:04;17.50;99.90
22271;DHT22;11304;53.520;10.104;2023-05-20T08:23:32;17.50;99.90
22271;DHT22;11304;53.520;10.104;2023-05-20T08:25:58;17.70;99.90
22271;DHT22;11304;53.520;10.104;2023-05-20T08:28:27;17.70;99.90
22271;DHT22;11304;53.520;10.104;2023-05-20T08:30:52;17.50;99.90
22271;DHT22;11304;53.520;10.104;2023-05-20T08:33:19;17.70;99.90
22271;DHT22;11304;53.520;10.104;2023-05-20T08:35:46;17.80;99.90
22271;DHT22;11304;53.520;10.104;2023-05-20T08:38:12;17.90;99.90
22271;DHT22;11304;53.520;10.104;2023-05-20T08:40:38;18.00;99.90
22271;DHT22;11304;53.520;10.104;2023-05-20T08:43:04;17.90;99.90
22271;DHT22;11304;53.520;10.104;2023-05-20T08:45:36;17.50;99.90
22271;DHT22;11304;53.520;10.104;2023-05-20T08:50:32;17.30;99.90
22271;DHT22;11304;53.520;10.104;2023-05-20T08:52:58;17.30;99.90
22271;DHT22;11304;53.520;10.104;2023-05-20T08:55:25;17.10;99.90
22271;DHT22;11304;53.520;10.104;2023-05-20T08:57:52;17.20;99.90
22271;DHT22;11304;53.520;10.104;2023-05-20T09:00:23;17.10;99.90
22271;DHT22;11304;53.520;10.104;2023-05-20T09:05:19;16.70;99.90
22271;DHT22;11304;53.520;10.104;2023-05-20T09:07:45;16.60;99.90
22271;DHT22;11304;53.520;10.104;2023-05-20T09:10:11;16.50;99.90
22271;DHT22;11304;53.520;10.104;2023-05-20T09:12:37;16.50;99.90
22271;DHT22;11304;53.520;10.104;2023-05-20T09:15:04;16.90;99.90
22271;DHT22;11304;53.520;10.104;2023-05-20T09:17:30;16.90;99.90
22271;DHT22;11304;53.520;10.104;2023-05-20T09:19:55;16.80;99.90
22271;DHT22;11304;53.520;10.104;2023-05-20T09:22:25;16.90;99.90
22271;DHT22;11304;53.520;10.104;2023-05-20T09:24:52;17.00;99.90
22271;DHT22;11304;53.520;10.104;2023-05-20T09:29:49;17.10;99.90
22271;DHT22;11304;53.520;10.104;2023-05-20T09:32:16;17.00;99.90
22271;DHT22;11304;53.520;10.104;2023-05-20T09:34:45;17.10;99.90
22271;DHT22;11304;53.520;10.104;2023-05-20T09:37:13;17.00;99.90
22271;DHT22;11304;53.520;10.104;2023-05-20T09:42:49;17.10;99.90
